Time;durP1;ratioP1;P1;durP2;ratioP2;P2;SDS_P1;SDS_P2;PMS_P1;PMS_P2;Temp;Humidity;BMP_temperature;BMP_pressure;BME280_temperature;BME280_humidity;BME280_pressure;Samples;Min_cycle;Max_cycle;Signal;HPM_P1;HPM_P2
2023/10/14 00:00:27;;;;;;;0.00;0.00;;;;;;;;;;5060018;28;20052;-65
2023/10/14 00:02:53;;;;;;;0.00;0.00;;;;;;;;;;5059326;28;20095;-64
2023/10/14 00:05:22;;;;;;;0.00;0.00;;;;;;;;;;5050745;28;20068;-64
2023/10/14 00:07:52;;;;;;;0.00;0.00;;;;;;;;;;5049708;28;20045;-63
2023/10/14 00:10:22;;;;;;;0.00;0.00;;;;;;;;;;5048669;28;20518;-64
2023/10/14 00:12:54;;;;;;;2.27;0.47;;;;;;;;;;5049106;28;20155;-64
2023/10/14 00:15:20;;;;;;;0.00;0.00;;;;;;;;;;5050440;28;20053;-64
2023/10/14 00:17:46;;;;;;;0.10;0.10;;;;;;;;;;5048959;28;20048;-64
2023/10/14 00:20:12;;;;;;;0.00;0.00;;;;;;;;;;5048825;28;20053;-64
2023/10/14 00:22:39;;;;;;;0.10;0.10;;;;;;;;;;5058220;28;20052;-64
2023/10/14 00:25:11;;;;;;;0.00;0.00;;;;;;;;;;5067816;28;20048;-64
2023/10/14 00:27:39;;;;;;;0.20;0.20;;;;;;;;;;5068107;28;20083;-63
2023/10/14 00:30:11;;;;;;;0.00;0.00;;;;;;;;;;5068863;28;20052;-64
2023/10/14 00:32:38;;;;;;;0.00;0.00;;;;;;;;;;5067376;28;20106;-64
2023/10/14 00:35:10;;;;;;;0.00;0.00;;;;;;;;;;5068506;28;20049;-64
2023/10/14 00:37:36;;;;;;;0.00;0.00;;;;;;;;;;5068162;28;20523;-64
2023/10/14 00:40:11;;;;;;;1.13;0.43;;;;;;;;;;5066974;28;20059;-63
2023/10/14 00:42:37;;;;;;;0.07;0.07;;;;;;;;;;5067650;28;20063;-63
2023/10/14 00:45:09;;;;;;;0.30;0.30;;;;;;;;;;5067708;28;20145;-64
2023/10/14 00:47:40;;;;;;;0.00;0.00;;;;;;;;;;5067553;28;20509;-63
2023/10/14 00:53:00;;;;;;;0.00;0.00;;;;;;;;;;5046944;28;20052;-63
2023/10/14 00:55:35;;;;;;;0.00;0.00;;;;;;;;;;5047400;28;20045;-63
2023/10/14 00:58:01;;;;;;;0.00;0.00;;;;;;;;;;5047785;28;20098;-63
2023/10/14 01:03:15;;;;;;;0.00;0.00;;;;;;;;;;5047659;28;20110;-63
2023/10/14 01:05:41;;;;;;;1.03;0.20;;;;;;;;;;5047812;28;20048;-63
2023/10/14 01:08:13;;;;;;;0.00;0.00;;;;;;;;;;5047214;28;20045;-63
2023/10/14 01:10:41;;;;;;;0.00;0.00;;;;;;;;;;5047271;28;20049;-63
2023/10/14 01:13:13;;;;;;;0.00;0.00;;;;;;;;;;5047756;28;20056;-63
2023/10/14 01:15:44;;;;;;;0.00;0.00;;;;;;;;;;5047023;28;20060;-63
2023/10/14 01:18:14;;;;;;;0.00;0.00;;;;;;;;;;5046495;28;20049;-63
2023/10/14 01:20:40;;;;;;;0.83;0.30;;;;;;;;;;5047163;28;20132;-63
2023/10/14 01:23:16;;;;;;;0.43;0.33;;;;;;;;;;5046831;28;20120;-63
2023/10/14 01:25:52;;;;;;;0.00;0.00;;;;;;;;;;5046370;28;20055;-63
2023/10/14 01:28:21;;;;;;;0.27;0.27;;;;;;;;;;5046888;28;20060;-63
2023/10/14 01:30:53;;;;;;;0.00;0.00;;;;;;;;;;5047292;28;20041;-63
2023/10/14 01:33:24;;;;;;;0.43;0.43;;;;;;;;;;5047275;28;20051;-63
2023/10/14 01:35:51;;;;;;;0.00;0.00;;;;;;;;;;5047137;28;20427;-63
2023/10/14 01:38:18;;;;;;;0.00;0.00;;;;;;;;;;5008794;28;1099163;-63
2023/10/14 01:43:15;;;;;;;0.10;0.10;;;;;;;;;;5048111;28;20115;-63
2023/10/14 01:46:00;;;;;;;0.00;0.00;;;;;;;;;;5059554;28;20059;-63
2023/10/14 01:48:30;;;;;;;0.00;0.00;;;;;;;;;;5066528;28;20048;-63
2023/10/14 01:50:57;;;;;;;0.10;0.10;;;;;;;;;;5068137;28;20040;-63
2023/10/14 01:53:24;;;;;;;0.20;0.20;;;;;;;;;;5068169;28;20052;-63
2023/10/14 01:55:52;;;;;;;0.00;0.00;;;;;;;;;;5066784;28;20051;-63
2023/10/14 01:58:22;;;;;;;0.30;0.30;;;;;;;;;;5067647;28;20517;-63
2023/10/14 02:00:53;;;;;;;0.00;0.00;;;;;;;;;;5067835;28;20520;-63
2023/10/14 02:03:22;;;;;;;0.00;0.00;;;;;;;;;;5059542;28;20392;-63
2023/10/14 02:05:51;;;;;;;0.00;0.00;;;;;;;;;;5048227;28;20068;-63
2023/10/14 02:08:21;;;;;;;0.00;0.00;;;;;;;;;;5047820;28;20103;-62
2023/10/14 02:10:47;;;;;;;0.10;0.10;;;;;;;;;;5047574;28;20045;-63
2023/10/14 02:13:15;;;;;;;0.10;0.10;;;;;;;;;;5047705;28;20495;-63
2023/10/14 02:15:46;;;;;;;0.00;0.00;;;;;;;;;;5046875;28;20408;-63
2023/10/14 02:18:12;;;;;;;0.10;0.10;;;;;;;;;;5047818;28;20056;-63
2023/10/14 02:20:45;;;;;;;0.27;0.27;;;;;;;;;;5047654;28;20080;-63
2023/10/14 02:23:11;;;;;;;0.22;0.20;;;;;;;;;;5047377;28;20049;-63
2023/10/14 02:25:37;;;;;;;0.30;0.30;;;;;;;;;;5047556;28;20060;-63
2023/10/14 02:28:06;;;;;;;0.00;0.00;;;;;;;;;;5047597;28;20048;-62
2023/10/14 02:30:32;;;;;;;1.10;0.47;;;;;;;;;;5062049;28;20045;-62
2023/10/14 02:32:58;;;;;;;6.40;1.90;;;;;;;;;;5066661;28;20574;-63
2023/10/14 02:35:24;;;;;;;0.00;0.00;;;;;;;;;;5064407;28;20052;-63
2023/10/14 02:37:51;;;;;;;0.00;0.00;;;;;;;;;;5048386;28;20057;-63
2023/10/14 02:40:24;;;;;;;0.00;0.00;;;;;;;;;;5051137;28;20049;-64
2023/10/14 02:42:57;;;;;;;0.00;0.00;;;;;;;;;;5050954;28;20517;-63
2023/10/14 02:45:23;;;;;;;0.30;0.30;;;;;;;;;;5063052;28;20451;-63
2023/10/14 02:47:49;;;;;;;0.00;0.00;;;;;;;;;;5060339;28;20087;-63
2023/10/14 02:50:22;;;;;;;0.00;0.00;;;;;;;;;;5059744;28;20820;-63
2023/10/14 02:52:49;;;;;;;0.00;0.00;;;;;;;;;;5050638;28;20561;-63
2023/10/14 02:55:21;;;;;;;0.00;0.00;;;;;;;;;;5050743;28;20083;-63
2023/10/14 02:57:47;;;;;;;0.00;0.00;;;;;;;;;;5049924;28;20564;-63
2023/10/14 03:00:30;;;;;;;0.57;0.57;;;;;;;;;;5066371;28;20494;-63
2023/10/14 03:03:02;;;;;;;0.00;0.00;;;;;;;;;;5050789;28;20055;-63
2023/10/14 03:05:41;;;;;;;0.20;0.20;;;;;;;;;;5050348;28;20040;-64
2023/10/14 03:08:09;;;;;;;0.00;0.00;;;;;;;;;;5050932;28;20466;-63
2023/10/14 03:10:39;;;;;;;0.00;0.00;;;;;;;;;;5050518;28;20487;-63
2023/10/14 03:13:06;;;;;;;0.00;0.00;;;;;;;;;;5050372;28;20048;-63
2023/10/14 03:15:38;;;;;;;0.53;0.30;;;;;;;;;;5060900;28;20334;-63
2023/10/14 03:18:05;;;;;;;1.10;0.53;;;;;;;;;;5070167;28;20052;-63
2023/10/14 03:20:45;;;;;;;0.40;0.40;;;;;;;;;;5070245;28;20076;-63
2023/10/14 03:23:18;;;;;;;0.10;0.10;;;;;;;;;;5070792;28;20045;-63
2023/10/14 03:25:45;;;;;;;0.10;0.10;;;;;;;;;;5070257;28;20120;-63
2023/10/14 03:28:12;;;;;;;0.10;0.10;;;;;;;;;;5070337;28;20530;-63
2023/10/14 03:30:44;;;;;;;1.90;1.10;;;;;;;;;;5070044;28;20057;-63
2023/10/14 03:33:10;;;;;;;0.00;0.00;;;;;;;;;;5063384;28;20090;-63
2023/10/14 03:35:41;;;;;;;0.00;0.00;;;;;;;;;;5049855;28;20045;-63
2023/10/14 03:38:14;;;;;;;0.27;0.23;;;;;;;;;;5049731;28;20132;-63
2023/10/14 03:43:15;;;;;;;0.00;0.00;;;;;;;;;;5050201;28;20064;-63
2023/10/14 03:45:56;;;;;;;0.00;0.00;;;;;;;;;;5048860;28;20084;-63
2023/10/14 03:49:06;;;;;;;0.00;0.00;;;;;;;;;;5049489;28;20056;-63
2023/10/14 03:51:25;;;;;;;0.00;0.00;;;;;;;;;;5043400;28;20053;-63
2023/10/14 03:53:54;;;;;;;0.00;0.00;;;;;;;;;;5057770;28;20044;-63
2023/10/14 03:56:21;;;;;;;0.73;0.73;;;;;;;;;;5068126;28;20495;-63
2023/10/14 03:58:49;;;;;;;0.00;0.00;;;;;;;;;;5069078;28;20056;-62
2023/10/14 04:01:22;;;;;;;0.53;0.53;;;;;;;;;;5069915;28;20053;-62
2023/10/14 04:03:52;;;;;;;0.00;0.00;;;;;;;;;;5069649;28;20457;-63
2023/10/14 04:06:19;;;;;;;0.00;0.00;;;;;;;;;;5069629;28;20384;-63
2023/10/14 04:08:47;;;;;;;4.43;1.03;;;;;;;;;;5069853;28;20056;-63
2023/10/14 04:11:15;;;;;;;0.40;0.40;;;;;;;;;;5069169;28;20048;-63
2023/10/14 04:14:03;;;;;;;0.20;0.20;;;;;;;;;;5067145;28;20048;-63
2023/10/14 04:19:44;;;;;;;0.00;0.00;;;;;;;;;;5049287;28;20207;-63
2023/10/14 04:22:00;;;;;;;0.00;0.00;;;;;;;;;;5047941;28;20526;-63
2023/10/14 04:24:47;;;;;;;0.00;0.00;;;;;;;;;;5049353;28;20052;-63
2023/10/14 04:30:11;;;;;;;0.00;0.00;;;;;;;;;;5048976;28;20098;-63
2023/10/14 04:32:48;;;;;;;0.00;0.00;;;;;;;;;;5051976;28;20056;-63
2023/10/14 04:35:19;;;;;;;0.30;0.30;;;;;;;;;;5059069;28;20049;-63
2023/10/14 04:37:51;;;;;;;0.10;0.10;;;;;;;;;;5061570;28;20136;-63
2023/10/14 04:43:18;;;;;;;0.37;0.37;;;;;;;;;;5068814;28;20134;-63
2023/10/14 04:45:52;;;;;;;0.00;0.00;;;;;;;;;;5068449;28;20513;-63
2023/10/14 04:48:19;;;;;;;;;;;;;;;;;;5068909;28;20159;-63
2023/10/14 04:50:45;;;;;;;0.10;0.10;;;;;;;;;;5068570;28;20010;-63
2023/10/14 04:53:13;;;;;;;0.00;0.00;;;;;;;;;;5068562;28;20549;-63
2023/10/14 04:55:45;;;;;;;0.10;0.10;;;;;;;;;;5055713;28;20132;-63
2023/10/14 04:58:12;;;;;;;0.10;0.10;;;;;;;;;;5048097;28;20146;-63
2023/10/14 05:00:42;;;;;;;0.10;0.10;;;;;;;;;;5048371;28;20060;-63
2023/10/14 05:03:12;;;;;;;0.00;0.00;;;;;;;;;;5048692;28;20061;-63
2023/10/14 05:05:43;;;;;;;0.17;0.17;;;;;;;;;;5047681;28;20423;-63
2023/10/14 05:08:15;;;;;;;0.00;0.00;;;;;;;;;;5058210;28;20461;-63
2023/10/14 05:10:42;;;;;;;0.00;0.00;;;;;;;;;;5068082;28;20127;-63
2023/10/14 05:13:13;;;;;;;0.00;0.00;;;;;;;;;;5067913;28;20139;-64
2023/10/14 05:15:43;;;;;;;0.00;0.00;;;;;;;;;;5068378;28;20578;-63
2023/10/14 05:18:16;;;;;;;0.00;0.00;;;;;;;;;;5066167;28;20094;-63
2023/10/14 05:20:55;;;;;;;0.90;0.80;;;;;;;;;;5068199;28;20048;-63
2023/10/14 05:23:24;;;;;;;0.00;0.00;;;;;;;;;;5068099;28;20044;-64
2023/10/14 05:25:56;;;;;;;0.00;0.00;;;;;;;;;;5067782;28;20063;-63
2023/10/14 05:28:29;;;;;;;0.30;0.30;;;;;;;;;;5049842;28;20095;-63
2023/10/14 05:31:00;;;;;;;0.38;0.38;;;;;;;;;;5056916;28;20512;-63
2023/10/14 05:33:31;;;;;;;0.00;0.00;;;;;;;;;;5067762;28;20040;-64
2023/10/14 05:36:01;;;;;;;0.03;0.03;;;;;;;;;;5056979;28;20408;-63
2023/10/14 05:38:27;;;;;;;0.00;0.00;;;;;;;;;;5067876;28;20067;-63
2023/10/14 05:40:55;;;;;;;0.10;0.10;;;;;;;;;;5068404;28;20094;-64
2023/10/14 05:43:25;;;;;;;0.10;0.10;;;;;;;;;;5065700;28;20044;-63
2023/10/14 05:45:52;;;;;;;0.37;0.37;;;;;;;;;;5047909;28;20068;-63
2023/10/14 05:48:18;;;;;;;0.10;0.10;;;;;;;;;;5047498;28;20048;-63
2023/10/14 05:50:44;;;;;;;0.10;0.10;;;;;;;;;;5047687;28;20402;-63
2023/10/14 05:53:11;;;;;;;0.00;0.00;;;;;;;;;;5047651;28;20041;-63
2023/10/14 05:55:39;;;;;;;0.00;0.00;;;;;;;;;;5047348;28;20578;-63
2023/10/14 05:58:06;;;;;;;0.00;0.00;;;;;;;;;;5047857;28;20431;-63
2023/10/14 06:00:34;;;;;;;0.00;0.00;;;;;;;;;;5047932;28;20657;-63
2023/10/14 06:03:00;;;;;;;0.00;0.00;;;;;;;;;;5066743;28;20055;-63
2023/10/14 06:05:31;;;;;;;0.10;0.10;;;;;;;;;;5062493;28;20080;-63
2023/10/14 06:08:05;;;;;;;3.23;1.30;;;;;;;;;;5050461;28;20078;-63
2023/10/14 06:10:36;;;;;;;0.10;0.10;;;;;;;;;;5047314;28;20060;-63
2023/10/14 06:13:05;;;;;;;0.00;0.00;;;;;;;;;;5049029;28;20561;-63
2023/10/14 06:15:32;;;;;;;0.00;0.00;;;;;;;;;;5051791;28;20374;-63
2023/10/14 06:17:58;;;;;;;0.00;0.00;;;;;;;;;;5051502;28;20057;-63
2023/10/14 06:20:25;;;;;;;0.40;0.40;;;;;;;;;;5051440;28;20056;-63
2023/10/14 06:22:56;;;;;;;0.00;0.00;;;;;;;;;;5049252;28;20163;-63
2023/10/14 06:25:22;;;;;;;0.10;0.10;;;;;;;;;;5058341;28;20064;-63
2023/10/14 06:27:49;;;;;;;1.80;1.57;;;;;;;;;;5054287;28;20517;-63
2023/10/14 06:30:21;;;;;;;0.30;0.30;;;;;;;;;;5057273;28;20045;-63
2023/10/14 06:33:03;;;;;;;0.10;0.10;;;;;;;;;;5070224;28;20048;-63
2023/10/14 06:35:31;;;;;;;0.00;0.00;;;;;;;;;;5058334;28;20066;-63
2023/10/14 06:37:58;;;;;;;0.73;0.73;;;;;;;;;;5050622;28;20487;-63
2023/10/14 06:40:24;;;;;;;0.00;0.00;;;;;;;;;;5051005;28;20481;-63
2023/10/14 06:42:53;;;;;;;0.00;0.00;;;;;;;;;;5058105;28;20045;-63
2023/10/14 06:45:21;;;;;;;0.47;0.47;;;;;;;;;;5052086;28;20056;-64
2023/10/14 06:47:50;;;;;;;0.63;0.63;;;;;;;;;;5048613;28;20053;-63
2023/10/14 06:50:20;;;;;;;0.00;0.00;;;;;;;;;;5050612;28;20052;-63
2023/10/14 06:52:47;;;;;;;0.27;0.23;;;;;;;;;;5050732;28;20075;-63
2023/10/14 06:55:13;;;;;;;1.13;0.90;;;;;;;;;;5050579;28;20048;-63
2023/10/14 06:57:42;;;;;;;0.40;0.40;;;;;;;;;;5050790;28;20049;-63
2023/10/14 07:00:12;;;;;;;0.00;0.00;;;;;;;;;;5049867;28;20580;-63
2023/10/14 07:02:38;;;;;;;0.10;0.10;;;;;;;;;;5049917;28;20481;-62
2023/10/14 07:05:05;;;;;;;0.50;0.50;;;;;;;;;;5056632;28;20045;-62
2023/10/14 07:07:32;;;;;;;0.43;0.43;;;;;;;;;;5070705;28;21183;-63
2023/10/14 07:09:59;;;;;;;0.00;0.00;;;;;;;;;;5069385;28;20163;-63
2023/10/14 07:12:25;;;;;;;0.77;0.67;;;;;;;;;;5070580;28;20198;-62
2023/10/14 07:14:53;;;;;;;0.00;0.00;;;;;;;;;;5069818;28;20075;-63
2023/10/14 07:17:22;;;;;;;0.83;0.83;;;;;;;;;;5070078;28;20426;-63
2023/10/14 07:19:48;;;;;;;0.10;0.10;;;;;;;;;;5069752;28;20066;-63
2023/10/14 07:22:18;;;;;;;0.57;0.57;;;;;;;;;;5069598;28;20048;-63
2023/10/14 07:24:44;;;;;;;0.10;0.10;;;;;;;;;;5067926;28;20073;-62
2023/10/14 07:27:10;;;;;;;0.43;0.43;;;;;;;;;;5058101;28;20049;-63
2023/10/14 07:29:39;;;;;;;0.00;0.00;;;;;;;;;;5053906;28;20057;-63
2023/10/14 07:32:05;;;;;;;0.37;0.37;;;;;;;;;;5052818;28;20045;-63
2023/10/14 07:34:31;;;;;;;0.00;0.00;;;;;;;;;;5066735;28;20048;-65
2023/10/14 07:36:57;;;;;;;0.30;0.30;;;;;;;;;;5050000;28;20102;-62
2023/10/14 07:39:29;;;;;;;0.00;0.00;;;;;;;;;;5049995;28;20045;-62
2023/10/14 07:41:56;;;;;;;0.10;0.10;;;;;;;;;;5049365;28;20060;-62
2023/10/14 07:44:25;;;;;;;4.60;1.70;;;;;;;;;;5053964;28;20064;-62
2023/10/14 07:46:54;;;;;;;0.93;0.93;;;;;;;;;;5068686;28;20091;-65
2023/10/14 07:49:20;;;;;;;3.23;0.83;;;;;;;;;;5069864;28;20052;-63
2023/10/14 07:51:46;;;;;;;0.10;0.10;;;;;;;;;;5065064;28;20045;-62
2023/10/14 07:54:12;;;;;;;0.00;0.00;;;;;;;;;;5049520;28;20124;-63
2023/10/14 07:56:42;;;;;;;0.20;0.20;;;;;;;;;;5049632;28;20570;-63
2023/10/14 07:59:08;;;;;;;4.43;1.57;;;;;;;;;;5049576;28;20044;-62
2023/10/14 08:01:38;;;;;;;0.00;0.00;;;;;;;;;;5069547;28;20066;-63
2023/10/14 08:04:07;;;;;;;0.17;0.17;;;;;;;;;;5063381;28;20041;-63
2023/10/14 08:06:34;;;;;;;0.53;0.50;;;;;;;;;;5049029;28;20052;-63
2023/10/14 08:09:00;;;;;;;0.30;0.30;;;;;;;;;;5055437;28;20051;-63
2023/10/14 08:11:26;;;;;;;0.40;0.40;;;;;;;;;;5069310;28;20054;-63
2023/10/14 08:13:52;;;;;;;2.03;0.70;;;;;;;;;;5069212;28;20049;-63
2023/10/14 08:16:20;;;;;;;0.00;0.00;;;;;;;;;;5052891;28;20052;-63
2023/10/14 08:18:46;;;;;;;0.00;0.00;;;;;;;;;;5049195;28;20093;-63
2023/10/14 08:21:12;;;;;;;0.47;0.47;;;;;;;;;;5048536;28;20080;-63
2023/10/14 08:23:38;;;;;;;0.10;0.10;;;;;;;;;;5049120;28;20544;-63
2023/10/14 08:26:12;;;;;;;1.83;1.70;;;;;;;;;;5049529;28;20500;-64
2023/10/14 08:28:38;;;;;;;0.00;0.00;;;;;;;;;;5048583;28;20111;-63
2023/10/14 08:31:07;;;;;;;1.30;0.63;;;;;;;;;;5049486;28;20435;-64
2023/10/14 08:33:33;;;;;;;1.13;1.10;;;;;;;;;;5059896;28;20052;-63
2023/10/14 08:35:59;;;;;;;0.10;0.10;;;;;;;;;;5048454;28;20049;-63
2023/10/14 08:38:28;;;;;;;0.00;0.00;;;;;;;;;;5062625;28;20056;-63
2023/10/14 08:40:55;;;;;;;3.83;1.70;;;;;;;;;;5068706;28;20486;-63
2023/10/14 08:43:22;;;;;;;0.10;0.10;;;;;;;;;;5065079;28;20076;-63
2023/10/14 08:45:49;;;;;;;1.80;1.17;;;;;;;;;;5063519;28;20045;-64
2023/10/14 08:48:15;;;;;;;0.00;0.00;;;;;;;;;;5068615;28;20483;-63
2023/10/14 08:50:41;;;;;;;0.10;0.10;;;;;;;;;;5053795;28;20415;-63
2023/10/14 08:53:09;;;;;;;2.50;0.60;;;;;;;;;;5059626;28;20407;-63
2023/10/14 08:55:36;;;;;;;0.33;0.33;;;;;;;;;;5068781;28;20190;-64
2023/10/14 08:58:04;;;;;;;2.40;0.17;;;;;;;;;;5063002;28;20518;-64
2023/10/14 09:00:31;;;;;;;0.83;0.77;;;;;;;;;;5058313;28;20101;-65
2023/10/14 09:03:00;;;;;;;1.90;0.93;;;;;;;;;;5068936;28;20048;-64
2023/10/14 09:05:26;;;;;;;0.10;0.10;;;;;;;;;;5068597;28;20080;-64
2023/10/14 09:07:58;;;;;;;0.00;0.00;;;;;;;;;;5067966;28;20564;-63
2023/10/14 09:10:27;;;;;;;0.43;0.43;;;;;;;;;;5068556;28;20044;-64
2023/10/14 09:12:57;;;;;;;2.47;0.17;;;;;;;;;;5068396;28;20037;-64
2023/10/14 09:15:24;;;;;;;0.00;0.00;;;;;;;;;;5068499;28;20165;-63
2023/10/14 09:17:50;;;;;;;0.00;0.00;;;;;;;;;;5067302;28;20132;-63
2023/10/14 09:20:30;;;;;;;0.10;0.10;;;;;;;;;;5068100;28;20488;-63
2023/10/14 09:23:16;;;;;;;0.10;0.10;;;;;;;;;;5068084;28;20090;-64
2023/10/14 09:25:55;;;;;;;0.00;0.00;;;;;;;;;;5065785;28;20052;-63
2023/10/14 09:28:22;;;;;;;0.10;0.10;;;;;;;;;;5055702;28;20041;-63
2023/10/14 09:30:51;;;;;;;0.00;0.00;;;;;;;;;;5067713;28;20048;-63
2023/10/14 09:33:20;;;;;;;0.00;0.00;;;;;;;;;;5067760;28;20045;-65
2023/10/14 09:35:48;;;;;;;0.20;0.20;;;;;;;;;;5049673;28;20131;-63
2023/10/14 09:38:18;;;;;;;0.63;0.63;;;;;;;;;;5067780;28;20143;-63
2023/10/14 09:40:44;;;;;;;0.00;0.00;;;;;;;;;;5067912;28;20080;-63
2023/10/14 09:43:12;;;;;;;2.47;0.60;;;;;;;;;;5067971;28;20136;-63
2023/10/14 09:45:39;;;;;;;0.00;0.00;;;;;;;;;;5048910;28;20467;-64
2023/10/14 09:48:06;;;;;;;0.00;0.00;;;;;;;;;;5049002;28;20048;-64
2023/10/14 09:50:32;;;;;;;8.90;1.80;;;;;;;;;;5056483;28;20075;-64
2023/10/14 09:53:00;;;;;;;0.17;0.17;;;;;;;;;;5055111;28;20514;-64
2023/10/14 09:55:26;;;;;;;0.77;0.53;;;;;;;;;;5062629;28;20120;-64
2023/10/14 09:57:53;;;;;;;4.23;1.30;;;;;;;;;;5051966;28;20422;-63
2023/10/14 10:00:19;;;;;;;0.10;0.07;;;;;;;;;;5051947;28;20080;-63
2023/10/14 10:02:46;;;;;;;0.00;0.00;;;;;;;;;;5053688;28;20040;-64
2023/10/14 10:05:16;;;;;;;0.00;0.00;;;;;;;;;;5051878;28;20136;-64
2023/10/14 10:07:43;;;;;;;0.07;0.07;;;;;;;;;;5052760;28;20540;-65
2023/10/14 10:10:16;;;;;;;0.57;0.57;;;;;;;;;;5051671;28;20559;-66
2023/10/14 10:12:45;;;;;;;0.00;0.00;;;;;;;;;;5051847;28;20124;-65
2023/10/14 10:15:19;;;;;;;0.00;0.00;;;;;;;;;;5050970;28;20045;-65
2023/10/14 10:17:53;;;;;;;0.00;0.00;;;;;;;;;;5051690;28;20052;-65
2023/10/14 10:20:26;;;;;;;0.00;0.00;;;;;;;;;;5051349;28;20052;-64
2023/10/14 10:22:55;;;;;;;0.00;0.00;;;;;;;;;;5051438;28;20557;-64
2023/10/14 10:25:23;;;;;;;0.00;0.00;;;;;;;;;;5052108;28;20063;-65
2023/10/14 10:27:55;;;;;;;0.00;0.00;;;;;;;;;;5050977;28;20037;-64
2023/10/14 10:30:22;;;;;;;0.00;0.00;;;;;;;;;;5050965;28;20095;-64
2023/10/14 10:32:51;;;;;;;0.00;0.00;;;;;;;;;;5071468;28;20045;-64
2023/10/14 10:35:18;;;;;;;0.00;0.00;;;;;;;;;;5071115;28;20051;-64
2023/10/14 10:37:50;;;;;;;0.30;0.30;;;;;;;;;;5070898;28;20064;-64
2023/10/14 10:40:18;;;;;;;2.57;0.20;;;;;;;;;;5069773;28;20167;-63
2023/10/14 10:42:48;;;;;;;5.00;0.37;;;;;;;;;;5058631;28;20053;-64
2023/10/14 10:45:40;;;;;;;2.03;0.13;;;;;;;;;;5063756;28;20415;-63
2023/10/14 10:48:07;;;;;;;0.00;0.00;;;;;;;;;;5058580;28;20364;-63
2023/10/14 10:50:40;;;;;;;0.20;0.20;;;;;;;;;;5049615;28;20055;-62
2023/10/14 10:53:10;;;;;;;8.52;1.45;;;;;;;;;;5051124;28;20053;-62
2023/10/14 10:55:37;;;;;;;0.10;0.10;;;;;;;;;;5051132;28;20079;-62
2023/10/14 10:58:04;;;;;;;2.33;1.00;;;;;;;;;;5050994;28;20084;-63
2023/10/14 11:00:30;;;;;;;0.00;0.00;;;;;;;;;;5050163;28;20053;-62
2023/10/14 11:02:57;;;;;;;0.50;0.47;;;;;;;;;;5055779;28;20060;-62
2023/10/14 11:05:25;;;;;;;0.67;0.63;;;;;;;;;;5062587;28;20086;-61
2023/10/14 11:07:52;;;;;;;2.37;1.10;;;;;;;;;;5050576;28;20053;-62
2023/10/14 11:10:28;;;;;;;0.10;0.10;;;;;;;;;;5050989;28;20136;-62
2023/10/14 11:12:58;;;;;;;0.20;0.20;;;;;;;;;;5050937;28;20060;-62
2023/10/14 11:15:34;;;;;;;4.97;0.97;;;;;;;;;;5050539;28;20574;-62
2023/10/14 11:18:00;;;;;;;0.60;0.30;;;;;;;;;;5050312;28;20053;-62
2023/10/14 11:20:28;;;;;;;5.17;1.90;;;;;;;;;;5050426;28;20041;-62
2023/10/14 11:22:55;;;;;;;0.00;0.00;;;;;;;;;;5050215;28;20045;-62
2023/10/14 11:25:25;;;;;;;0.37;0.37;;;;;;;;;;5050394;28;20036;-62
2023/10/14 11:27:54;;;;;;;0.70;0.70;;;;;;;;;;5050572;28;20048;-62
2023/10/14 11:30:21;;;;;;;1.03;0.93;;;;;;;;;;5050284;28;20051;-62
2023/10/14 11:32:50;;;;;;;0.10;0.10;;;;;;;;;;5055176;28;20411;-62
2023/10/14 11:35:18;;;;;;;0.07;0.07;;;;;;;;;;5069603;28;20115;-62
2023/10/14 11:37:52;;;;;;;0.20;0.20;;;;;;;;;;5061149;28;20049;-62
2023/10/14 11:40:19;;;;;;;0.33;0.33;;;;;;;;;;5050193;28;20495;-62
2023/10/14 11:42:46;;;;;;;0.00;0.00;;;;;;;;;;5067046;28;20048;-62
2023/10/14 11:45:13;;;;;;;0.63;0.30;;;;;;;;;;5069932;28;20052;-62
2023/10/14 11:47:44;;;;;;;0.33;0.33;;;;;;;;;;5069936;28;20055;-62
2023/10/14 11:50:14;;;;;;;0.00;0.00;;;;;;;;;;5069793;28;20502;-62
2023/10/14 11:52:43;;;;;;;0.00;0.00;;;;;;;;;;5069659;28;20080;-62
2023/10/14 11:55:16;;;;;;;0.00;0.00;;;;;;;;;;5068001;28;20032;-62
2023/10/14 11:57:45;;;;;;;0.00;0.00;;;;;;;;;;5069453;28;20041;-62
2023/10/14 12:00:12;;;;;;;0.57;0.57;;;;;;;;;;5068941;28;20055;-63
2023/10/14 12:02:41;;;;;;;0.47;0.23;;;;;;;;;;5069095;28;20091;-63
2023/10/14 12:05:08;;;;;;;0.20;0.20;;;;;;;;;;5069292;28;20040;-63
2023/10/14 12:07:34;;;;;;;0.00;0.00;;;;;;;;;;5067977;28;20123;-62
2023/10/14 12:10:00;;;;;;;0.40;0.20;;;;;;;;;;5068499;28;20045;-62
2023/10/14 12:12:27;;;;;;;0.03;0.00;;;;;;;;;;5069003;28;20082;-62
2023/10/14 12:14:53;;;;;;;0.47;0.47;;;;;;;;;;5068856;28;20045;-62
2023/10/14 12:17:19;;;;;;;0.27;0.27;;;;;;;;;;5060966;28;20032;-63
2023/10/14 12:19:45;;;;;;;0.63;0.63;;;;;;;;;;5050312;28;20055;-63
2023/10/14 12:22:11;;;;;;;0.10;0.10;;;;;;;;;;5060106;28;20046;-63
2023/10/14 12:24:37;;;;;;;0.30;0.30;;;;;;;;;;5060122;28;20049;-63
2023/10/14 12:27:03;;;;;;;0.00;0.00;;;;;;;;;;5048316;28;20045;-64
2023/10/14 12:29:33;;;;;;;0.00;0.00;;;;;;;;;;5048440;28;20052;-63
2023/10/14 12:31:59;;;;;;;0.03;0.03;;;;;;;;;;5059752;28;20048;-63
2023/10/14 12:34:28;;;;;;;0.23;0.23;;;;;;;;;;5050140;28;20518;-63
2023/10/14 12:36:54;;;;;;;0.00;0.00;;;;;;;;;;5064665;28;20097;-63
2023/10/14 12:39:26;;;;;;;1.90;0.67;;;;;;;;;;5048890;28;20060;-63
2023/10/14 12:41:53;;;;;;;0.20;0.20;;;;;;;;;;5048312;28;20139;-63
2023/10/14 12:44:22;;;;;;;0.00;0.00;;;;;;;;;;5052243;28;20044;-63
2023/10/14 12:46:48;;;;;;;0.00;0.00;;;;;;;;;;5068366;28;20052;-63
2023/10/14 12:49:18;;;;;;;0.30;0.30;;;;;;;;;;5068126;28;20055;-63
2023/10/14 12:51:45;;;;;;;1.20;0.60;;;;;;;;;;5065406;28;20052;-63
2023/10/14 12:54:16;;;;;;;2.27;1.27;;;;;;;;;;5068413;28;20052;-62
2023/10/14 12:56:43;;;;;;;1.70;0.43;;;;;;;;;;5055219;28;20045;-62
2023/10/14 12:59:15;;;;;;;0.00;0.00;;;;;;;;;;5052771;28;20526;-63
2023/10/14 13:01:49;;;;;;;0.57;0.57;;;;;;;;;;5057777;28;20614;-63
2023/10/14 13:04:19;;;;;;;0.00;0.00;;;;;;;;;;5066308;28;20048;-63
2023/10/14 13:06:46;;;;;;;0.03;0.03;;;;;;;;;;5048083;28;20397;-62
2023/10/14 13:09:13;;;;;;;0.07;0.00;;;;;;;;;;5047851;28;20049;-62
2023/10/14 13:11:43;;;;;;;0.00;0.00;;;;;;;;;;5068141;28;20112;-62
2023/10/14 13:14:09;;;;;;;0.10;0.10;;;;;;;;;;5052512;28;20507;-62
2023/10/14 13:16:36;;;;;;;0.20;0.20;;;;;;;;;;5053046;28;20134;-62
2023/10/14 13:19:03;;;;;;;0.00;0.00;;;;;;;;;;5049874;28;20818;-62
2023/10/14 13:21:30;;;;;;;0.23;0.23;;;;;;;;;;5054125;28;20048;-61
2023/10/14 13:23:56;;;;;;;0.00;0.00;;;;;;;;;;5067368;28;20045;-61
2023/10/14 13:26:23;;;;;;;0.47;0.47;;;;;;;;;;5067374;28;20076;-61
2023/10/14 13:28:52;;;;;;;0.47;0.40;;;;;;;;;;5065163;28;20136;-61
2023/10/14 13:31:20;;;;;;;0.00;0.00;;;;;;;;;;5058257;28;20048;-61
2023/10/14 13:33:49;;;;;;;0.17;0.17;;;;;;;;;;5068022;28;20136;-61
2023/10/14 13:36:16;;;;;;;0.13;0.13;;;;;;;;;;5066130;28;20744;-61
2023/10/14 13:38:42;;;;;;;0.27;0.27;;;;;;;;;;5067205;28;20056;-62
2023/10/14 13:41:08;;;;;;;0.50;0.50;;;;;;;;;;5067942;28;20052;-61
2023/10/14 13:43:34;;;;;;;0.97;0.57;;;;;;;;;;5067357;28;20135;-61
2023/10/14 13:46:00;;;;;;;5.20;0.57;;;;;;;;;;5067859;28;20040;-61
2023/10/14 13:48:26;;;;;;;1.00;0.50;;;;;;;;;;5067489;28;20044;-61
2023/10/14 13:50:56;;;;;;;15.57;0.97;;;;;;;;;;5067683;28;20047;-61
2023/10/14 13:53:23;;;;;;;0.10;0.10;;;;;;;;;;5067323;28;20585;-61
2023/10/14 13:55:55;;;;;;;2.30;0.43;;;;;;;;;;5067938;28;20155;-61
2023/10/14 13:58:23;;;;;;;0.10;0.10;;;;;;;;;;5067801;28;20047;-61
2023/10/14 14:00:50;;;;;;;12.10;0.47;;;;;;;;;;5067686;28;20056;-61
2023/10/14 14:03:16;;;;;;;0.10;0.10;;;;;;;;;;5066983;28;20135;-62
2023/10/14 14:05:51;;;;;;;0.00;0.00;;;;;;;;;;5067551;28;20078;-61
2023/10/14 14:08:19;;;;;;;0.10;0.10;;;;;;;;;;5067414;28;20059;-61
2023/10/14 14:10:45;;;;;;;0.20;0.20;;;;;;;;;;5067189;28;20559;-61
2023/10/14 14:13:17;;;;;;;5.40;1.40;;;;;;;;;;5067202;28;20040;-61
2023/10/14 14:15:44;;;;;;;0.20;0.20;;;;;;;;;;5067226;28;20662;-61
2023/10/14 14:18:10;;;;;;;0.20;0.20;;;;;;;;;;5066921;28;20076;-61
2023/10/14 14:20:36;;;;;;;1.43;0.90;;;;;;;;;;5067375;28;20041;-61
2023/10/14 14:23:02;;;;;;;0.10;0.10;;;;;;;;;;5066671;28;20514;-61
2023/10/14 14:25:29;;;;;;;19.40;2.13;;;;;;;;;;5067118;28;20040;-60
2023/10/14 14:27:56;;;;;;;0.10;0.10;;;;;;;;;;5067255;28;20549;-61
2023/10/14 14:30:24;;;;;;;0.00;0.00;;;;;;;;;;5067308;28;20048;-61
2023/10/14 14:32:53;;;;;;;0.20;0.20;;;;;;;;;;5067072;28;20494;-60
2023/10/14 14:35:23;;;;;;;0.10;0.10;;;;;;;;;;5070304;28;20159;-61
2023/10/14 14:37:49;;;;;;;1.60;0.77;;;;;;;;;;5070495;28;20183;-61
2023/10/14 14:40:23;;;;;;;0.00;0.00;;;;;;;;;;5070566;28;20099;-61
2023/10/14 14:42:51;;;;;;;0.00;0.00;;;;;;;;;;5070516;28;20079;-60
2023/10/14 14:45:22;;;;;;;0.43;0.43;;;;;;;;;;5070640;28;20102;-61
2023/10/14 14:47:48;;;;;;;0.00;0.00;;;;;;;;;;5070476;28;20388;-61
2023/10/14 14:50:15;;;;;;;0.50;0.43;;;;;;;;;;5070367;28;20037;-61
2023/10/14 14:52:41;;;;;;;0.17;0.17;;;;;;;;;;5070319;28;20507;-60
2023/10/14 14:55:08;;;;;;;0.30;0.30;;;;;;;;;;5070079;28;20044;-60
2023/10/14 14:57:38;;;;;;;0.13;0.13;;;;;;;;;;5070554;28;20044;-61
2023/10/14 15:00:08;;;;;;;0.30;0.23;;;;;;;;;;5070173;28;20044;-61
2023/10/14 15:02:35;;;;;;;0.00;0.00;;;;;;;;;;5070795;28;20090;-60
2023/10/14 15:05:04;;;;;;;0.00;0.00;;;;;;;;;;5070243;28;20083;-61
2023/10/14 15:07:32;;;;;;;0.47;0.37;;;;;;;;;;5070057;28;20079;-60
2023/10/14 15:09:58;;;;;;;0.20;0.20;;;;;;;;;;5070169;28;20407;-61
2023/10/14 15:12:24;;;;;;;9.97;1.33;;;;;;;;;;5070222;28;20118;-60